sensor_id;sensor_type;location;lat;lon;timestamp;pressure;altitude;pressure_sealevel;temperature;humidity
74544;BME280;63016;55.030;38.710;2023-09-07T00:00:42;100331.69;;;10.69;54.06
74544;BME280;63016;55.030;38.710;2023-09-07T00:03:07;100328.91;;;10.71;53.55
74544;BME280;63016;55.030;38.710;2023-09-07T00:05:33;100333.50;;;10.77;53.64
74544;BME280;63016;55.030;38.710;2023-09-07T00:07:58;100338.06;;;10.75;54.27
74544;BME280;63016;55.030;38.710;2023-09-07T00:10:24;100332.19;;;10.73;53.81
74544;BME280;63016;55.030;38.710;2023-09-07T00:12:51;100324.03;;;10.76;54.14
74544;BME280;63016;55.030;38.710;2023-09-07T00:15:16;100325.19;;;10.73;53.81
74544;BME280;63016;55.030;38.710;2023-09-07T00:17:44;100314.25;;;10.70;53.93
74544;BME280;63016;55.030;38.710;2023-09-07T00:20:10;100317.84;;;10.69;53.76
74544;BME280;63016;55.030;38.710;2023-09-07T00:22:37;100325.50;;;10.70;54.00
74544;BME280;63016;55.030;38.710;2023-09-07T00:25:03;100326.94;;;10.65;54.38
74544;BME280;63016;55.030;38.710;2023-09-07T00:27:33;100312.41;;;10.62;54.41
74544;BME280;63016;55.030;38.710;2023-09-07T00:29:59;100325.78;;;10.67;54.41
74544;BME280;63016;55.030;38.710;2023-09-07T00:32:25;100322.19;;;10.60;54.82
74544;BME280;63016;55.030;38.710;2023-09-07T00:34:50;100331.81;;;10.68;54.40
74544;BME280;63016;55.030;38.710;2023-09-07T00:37:15;100333.50;;;10.69;54.15
74544;BME280;63016;55.030;38.710;2023-09-07T00:39:41;100336.41;;;10.66;54.46
74544;BME280;63016;55.030;38.710;2023-09-07T00:42:06;100339.00;;;10.66;54.19
74544;BME280;63016;55.030;38.710;2023-09-07T00:44:32;100353.84;;;10.65;54.32
74544;BME280;63016;55.030;38.710;2023-09-07T00:46:57;100350.44;;;10.65;54.17
74544;BME280;63016;55.030;38.710;2023-09-07T00:49:24;100353.84;;;10.65;54.31
74544;BME280;63016;55.030;38.710;2023-09-07T00:51:51;100352.69;;;10.60;54.64
74544;BME280;63016;55.030;38.710;2023-09-07T00:54:17;100350.19;;;10.58;54.29
74544;BME280;63016;55.030;38.710;2023-09-07T00:56:43;100355.13;;;10.61;54.50
74544;BME280;63016;55.030;38.710;2023-09-07T00:59:09;100346.28;;;10.54;54.52
74544;BME280;63016;55.030;38.710;2023-09-07T01:01:36;100367.19;;;10.62;54.58
74544;BME280;63016;55.030;38.710;2023-09-07T01:04:02;100352.69;;;10.60;54.58
74544;BME280;63016;55.030;38.710;2023-09-07T01:06:45;100364.44;;;10.64;54.46
74544;BME280;63016;55.030;38.710;2023-09-07T01:09:20;100350.38;;;10.57;54.91
74544;BME280;63016;55.030;38.710;2023-09-07T01:11:47;100360.00;;;10.56;54.88
74544;BME280;63016;55.030;38.710;2023-09-07T01:14:12;100373.22;;;10.63;54.66
74544;BME280;63016;55.030;38.710;2023-09-07T01:16:38;100355.88;;;10.53;54.52
74544;BME280;63016;55.030;38.710;2023-09-07T01:19:08;100364.06;;;10.59;55.31
74544;BME280;63016;55.030;38.710;2023-09-07T01:21:36;100368.34;;;10.60;54.50
74544;BME280;63016;55.030;38.710;2023-09-07T01:24:04;100369.25;;;10.50;54.83
74544;BME280;63016;55.030;38.710;2023-09-07T01:26:31;100379.72;;;10.59;54.79
74544;BME280;63016;55.030;38.710;2023-09-07T01:28:57;100380.69;;;10.58;55.00
74544;BME280;63016;55.030;38.710;2023-09-07T01:31:22;100366.78;;;10.49;54.86
74544;BME280;63016;55.030;38.710;2023-09-07T01:33:48;100384.44;;;10.55;54.56
74544;BME280;63016;55.030;38.710;2023-09-07T01:36:13;100380.22;;;10.54;54.75
74544;BME280;63016;55.030;38.710;2023-09-07T01:38:39;100379.00;;;10.48;54.72
74544;BME280;63016;55.030;38.710;2023-09-07T01:41:04;100374.59;;;10.49;54.88
74544;BME280;63016;55.030;38.710;2023-09-07T01:43:30;100382.44;;;10.49;54.72
74544;BME280;63016;55.030;38.710;2023-09-07T01:45:55;100374.56;;;10.41;55.16
74544;BME280;63016;55.030;38.710;2023-09-07T01:48:20;100383.28;;;10.49;55.36
74544;BME280;63016;55.030;38.710;2023-09-07T01:50:46;100385.88;;;10.49;55.10
74544;BME280;63016;55.030;38.710;2023-09-07T01:53:11;100391.91;;;10.50;54.84
74544;BME280;63016;55.030;38.710;2023-09-07T01:55:37;100393.84;;;10.48;54.87
74544;BME280;63016;55.030;38.710;2023-09-07T01:58:03;100390.41;;;10.47;55.16
74544;BME280;63016;55.030;38.710;2023-09-07T02:00:28;100400.84;;;10.47;55.29
74544;BME280;63016;55.030;38.710;2023-09-07T02:02:53;100393.84;;;10.48;55.49
74544;BME280;63016;55.030;38.710;2023-09-07T02:05:19;100395.63;;;10.47;55.42
74544;BME280;63016;55.030;38.710;2023-09-07T02:07:46;100385.97;;;10.40;55.54
74544;BME280;63016;55.030;38.710;2023-09-07T02:10:14;100396.78;;;10.45;55.34
74544;BME280;63016;55.030;38.710;2023-09-07T02:12:40;100403.47;;;10.47;55.73
74544;BME280;63016;55.030;38.710;2023-09-07T02:15:06;100396.63;;;10.46;55.16
74544;BME280;63016;55.030;38.710;2023-09-07T02:17:31;100401.84;;;10.46;55.13
74544;BME280;63016;55.030;38.710;2023-09-07T02:19:57;100404.91;;;10.42;55.45
74544;BME280;63016;55.030;38.710;2023-09-07T02:22:23;100410.75;;;10.44;55.73
74544;BME280;63016;55.030;38.710;2023-09-07T02:24:48;100409.94;;;10.43;55.40
74544;BME280;63016;55.030;38.710;2023-09-07T02:27:14;100405.06;;;10.40;55.96
74544;BME280;63016;55.030;38.710;2023-09-07T02:29:40;100408.16;;;10.44;55.36
74544;BME280;63016;55.030;38.710;2023-09-07T02:32:05;100409.00;;;10.44;55.05
74544;BME280;63016;55.030;38.710;2023-09-07T02:34:31;100398.84;;;10.41;55.51
74544;BME280;63016;55.030;38.710;2023-09-07T02:36:57;100413.38;;;10.44;55.44
74544;BME280;63016;55.030;38.710;2023-09-07T02:39:23;100414.22;;;10.44;55.85
74544;BME280;63016;55.030;38.710;2023-09-07T02:41:52;100409.94;;;10.43;55.63
74544;BME280;63016;55.030;38.710;2023-09-07T02:44:17;100425.59;;;10.43;55.47
74544;BME280;63016;55.030;38.710;2023-09-07T02:46:42;100429.88;;;10.44;55.72
74544;BME280;63016;55.030;38.710;2023-09-07T02:49:08;100424.88;;;10.33;55.89
74544;BME280;63016;55.030;38.710;2023-09-07T02:51:34;100428.16;;;10.35;55.51
74544;BME280;63016;55.030;38.710;2023-09-07T02:54:01;100437.31;;;10.39;55.96
74544;BME280;63016;55.030;38.710;2023-09-07T02:56:27;100446.94;;;10.39;55.51
74544;BME280;63016;55.030;38.710;2023-09-07T02:58:52;100432.03;;;10.31;55.76
74544;BME280;63016;55.030;38.710;2023-09-07T03:01:18;100428.91;;;10.27;55.94
74544;BME280;63016;55.030;38.710;2023-09-07T03:03:46;100448.88;;;10.37;56.01
74544;BME280;63016;55.030;38.710;2023-09-07T03:06:12;100450.66;;;10.36;55.81
74544;BME280;63016;55.030;38.710;2023-09-07T03:08:39;100446.72;;;10.32;55.73
74544;BME280;63016;55.030;38.710;2023-09-07T03:11:06;100446.56;;;10.34;55.80
74544;BME280;63016;55.030;38.710;2023-09-07T03:13:32;100447.25;;;10.36;56.12
74544;BME280;63016;55.030;38.710;2023-09-07T03:15:57;100443.66;;;10.37;55.96
74544;BME280;63016;55.030;38.710;2023-09-07T03:18:23;100449.03;;;10.35;56.10
74544;BME280;63016;55.030;38.710;2023-09-07T03:20:50;100450.13;;;10.33;56.00
74544;BME280;63016;55.030;38.710;2023-09-07T03:23:16;100456.41;;;10.40;56.14
74544;BME280;63016;55.030;38.710;2023-09-07T03:25:41;100460.66;;;10.41;56.36
74544;BME280;63016;55.030;38.710;2023-09-07T03:28:07;100458.88;;;10.41;55.85
74544;BME280;63016;55.030;38.710;2023-09-07T03:30:33;100456.25;;;10.41;56.14
74544;BME280;63016;55.030;38.710;2023-09-07T03:32:58;100467.06;;;10.46;56.25
74544;BME280;63016;55.030;38.710;2023-09-07T03:35:24;100462.28;;;10.42;56.15
74544;BME280;63016;55.030;38.710;2023-09-07T03:37:49;100472.09;;;10.48;56.13
74544;BME280;63016;55.030;38.710;2023-09-07T03:40:15;100472.81;;;10.50;56.36
74544;BME280;63016;55.030;38.710;2023-09-07T03:42:41;100462.50;;;10.48;56.20
74544;BME280;63016;55.030;38.710;2023-09-07T03:45:07;100480.31;;;10.53;56.69
74544;BME280;63016;55.030;38.710;2023-09-07T03:47:33;100478.38;;;10.55;56.28
74544;BME280;63016;55.030;38.710;2023-09-07T03:49:58;100483.28;;;10.58;56.94
74544;BME280;63016;55.030;38.710;2023-09-07T03:52:25;100479.03;;;10.57;56.65
74544;BME280;63016;55.030;38.710;2023-09-07T03:54:53;100487.09;;;10.64;56.86
74544;BME280;63016;55.030;38.710;2023-09-07T03:57:19;100487.75;;;10.66;56.41
74544;BME280;63016;55.030;38.710;2023-09-07T03:59:46;100489.09;;;10.70;56.93
74544;BME280;63016;55.030;38.710;2023-09-07T04:02:11;100494.31;;;10.70;56.60
74544;BME280;63016;55.030;38.710;2023-09-07T04:04:38;100497.94;;;10.77;56.98
74544;BME280;63016;55.030;38.710;2023-09-07T04:07:03;100503.84;;;10.79;56.92
74544;BME280;63016;55.030;38.710;2023-09-07T04:09:29;100507.81;;;10.83;57.14
74544;BME280;63016;55.030;38.710;2023-09-07T04:11:54;100515.16;;;10.88;56.84
74544;BME280;63016;55.030;38.710;2023-09-07T04:14:20;100506.50;;;10.87;56.59
74544;BME280;63016;55.030;38.710;2023-09-07T04:16:45;100518.00;;;10.94;56.80
74544;BME280;63016;55.030;38.710;2023-09-07T04:19:11;100508.53;;;10.93;57.29
74544;BME280;63016;55.030;38.710;2023-09-07T04:21:38;100514.91;;;10.99;57.08
74544;BME280;63016;55.030;38.710;2023-09-07T04:24:04;100511.34;;;11.00;56.97
74544;BME280;63016;55.030;38.710;2023-09-07T04:26:30;100524.28;;;11.10;57.50
74544;BME280;63016;55.030;38.710;2023-09-07T04:28:55;100516.47;;;11.10;56.86
74544;BME280;63016;55.030;38.710;2023-09-07T04:31:21;100532.03;;;11.19;57.03
74544;BME280;63016;55.030;38.710;2023-09-07T04:33:47;100528.78;;;11.25;57.41
74544;BME280;63016;55.030;38.710;2023-09-07T04:36:14;100527.50;;;11.29;56.99
74544;BME280;63016;55.030;38.710;2023-09-07T04:38:40;100512.53;;;11.31;57.42
74544;BME280;63016;55.030;38.710;2023-09-07T04:41:10;100530.81;;;11.40;57.53
74544;BME280;63016;55.030;38.710;2023-09-07T04:43:38;100538.88;;;11.46;57.35
74544;BME280;63016;55.030;38.710;2023-09-07T04:46:06;100528.78;;;11.51;57.18
74544;BME280;63016;55.030;38.710;2023-09-07T04:48:32;100526.66;;;11.55;57.25
74544;BME280;63016;55.030;38.710;2023-09-07T04:51:06;100526.34;;;11.58;57.08
74544;BME280;63016;55.030;38.710;2023-09-07T04:53:35;100531.47;;;11.68;57.43
74544;BME280;63016;55.030;38.710;2023-09-07T04:56:01;100534.94;;;11.76;57.47
74544;BME280;63016;55.030;38.710;2023-09-07T04:58:27;100536.78;;;11.84;57.49
74544;BME280;63016;55.030;38.710;2023-09-07T05:00:53;100538.44;;;11.93;57.64
74544;BME280;63016;55.030;38.710;2023-09-07T05:03:19;100533.91;;;12.03;57.83
74544;BME280;63016;55.030;38.710;2023-09-07T05:05:44;100530.19;;;12.14;57.68
74544;BME280;63016;55.030;38.710;2023-09-07T05:08:10;100541.63;;;12.21;57.28
74544;BME280;63016;55.030;38.710;2023-09-07T05:10:37;100527.44;;;12.24;57.51
74544;BME280;63016;55.030;38.710;2023-09-07T05:13:03;100529.56;;;12.37;57.59
74544;BME280;63016;55.030;38.710;2023-09-07T05:15:28;100549.38;;;12.47;57.70
74544;BME280;63016;55.030;38.710;2023-09-07T05:17:54;100539.91;;;12.54;57.43
74544;BME280;63016;55.030;38.710;2023-09-07T05:20:20;100540.88;;;12.61;57.60
74544;BME280;63016;55.030;38.710;2023-09-07T05:22:46;100542.69;;;12.69;57.33
74544;BME280;63016;55.030;38.710;2023-09-07T05:25:12;100550.69;;;12.76;57.13
74544;BME280;63016;55.030;38.710;2023-09-07T05:27:38;100545.63;;;12.82;57.33
74544;BME280;63016;55.030;38.710;2023-09-07T05:30:04;100552.03;;;12.88;57.19
74544;BME280;63016;55.030;38.710;2023-09-07T05:32:30;100554.97;;;12.93;57.21
74544;BME280;63016;55.030;38.710;2023-09-07T05:34:56;100547.59;;;12.97;57.30
74544;BME280;63016;55.030;38.710;2023-09-07T05:37:21;100554.13;;;13.09;57.26
74544;BME280;63016;55.030;38.710;2023-09-07T05:39:47;100553.31;;;13.17;57.09
74544;BME280;63016;55.030;38.710;2023-09-07T05:42:14;100558.91;;;13.22;56.89
74544;BME280;63016;55.030;38.710;2023-09-07T05:44:39;100546.63;;;13.22;57.18
74544;BME280;63016;55.030;38.710;2023-09-07T05:47:05;100554.47;;;13.30;57.27
74544;BME280;63016;55.030;38.710;2023-09-07T05:49:31;100559.16;;;13.43;56.87
74544;BME280;63016;55.030;38.710;2023-09-07T05:51:56;100561.78;;;13.51;56.94
74544;BME280;63016;55.030;38.710;2023-09-07T05:54:22;100565.53;;;13.57;56.99
74544;BME280;63016;55.030;38.710;2023-09-07T05:56:47;100564.03;;;13.62;56.55
74544;BME280;63016;55.030;38.710;2023-09-07T05:59:13;100563.38;;;13.69;56.67
74544;BME280;63016;55.030;38.710;2023-09-07T06:01:39;100569.91;;;13.73;56.49
74544;BME280;63016;55.030;38.710;2023-09-07T06:04:06;100557.78;;;13.72;55.93
74544;BME280;63016;55.030;38.710;2023-09-07T06:06:31;100559.06;;;13.76;56.18
74544;BME280;63016;55.030;38.710;2023-09-07T06:08:57;100566.91;;;13.84;56.50
74544;BME280;63016;55.030;38.710;2023-09-07T06:11:24;100567.34;;;13.96;57.22
74544;BME280;63016;55.030;38.710;2023-09-07T06:13:50;100566.16;;;14.06;57.10
74544;BME280;63016;55.030;38.710;2023-09-07T06:16:15;100572.00;;;14.17;57.05
74544;BME280;63016;55.030;38.710;2023-09-07T06:18:41;100555.22;;;14.26;56.20
74544;BME280;63016;55.030;38.710;2023-09-07T06:21:06;100563.38;;;14.31;56.21
74544;BME280;63016;55.030;38.710;2023-09-07T06:23:32;100551.13;;;14.31;56.10
74544;BME280;63016;55.030;38.710;2023-09-07T06:25:57;100575.16;;;14.43;56.04
74544;BME280;63016;55.030;38.710;2023-09-07T06:28:23;100570.03;;;14.50;56.41
74544;BME280;63016;55.030;38.710;2023-09-07T06:30:48;100570.81;;;14.58;56.76
74544;BME280;63016;55.030;38.710;2023-09-07T06:33:14;100583.88;;;14.67;56.36
74544;BME280;63016;55.030;38.710;2023-09-07T06:35:39;100573.47;;;14.73;55.80
74544;BME280;63016;55.030;38.710;2023-09-07T06:38:05;100580.03;;;14.77;55.63
74544;BME280;63016;55.030;38.710;2023-09-07T06:40:31;100566.72;;;14.79;55.19
74544;BME280;63016;55.030;38.710;2023-09-07T06:42:56;100573.78;;;14.78;55.40
74544;BME280;63016;55.030;38.710;2023-09-07T06:45:22;100551.13;;;14.77;55.23
74544;BME280;63016;55.030;38.710;2023-09-07T06:47:52;100566.66;;;14.87;56.12
74544;BME280;63016;55.030;38.710;2023-09-07T06:50:17;100551.50;;;14.89;56.31
74544;BME280;63016;55.030;38.710;2023-09-07T06:52:43;100571.41;;;15.06;55.90
74544;BME280;63016;55.030;38.710;2023-09-07T06:55:08;100564.81;;;15.10;55.70
74544;BME280;63016;55.030;38.710;2023-09-07T06:57:34;100551.84;;;15.09;55.84
74544;BME280;63016;55.030;38.710;2023-09-07T07:00:01;100561.72;;;15.22;56.23
74544;BME280;63016;55.030;38.710;2023-09-07T07:02:26;100567.13;;;15.28;55.59
74544;BME280;63016;55.030;38.710;2023-09-07T07:04:52;100577.66;;;15.43;55.71
74544;BME280;63016;55.030;38.710;2023-09-07T07:07:18;100580.53;;;15.48;55.38
74544;BME280;63016;55.030;38.710;2023-09-07T07:09:43;100585.69;;;15.56;55.53
74544;BME280;63016;55.030;38.710;2023-09-07T07:12:09;100579.47;;;15.57;55.16
74544;BME280;63016;55.030;38.710;2023-09-07T07:14:34;100576.66;;;15.59;55.25
74544;BME280;63016;55.030;38.710;2023-09-07T07:17:00;100594.63;;;15.70;55.29
74544;BME280;63016;55.030;38.710;2023-09-07T07:19:30;100579.75;;;15.77;55.01
74544;BME280;63016;55.030;38.710;2023-09-07T07:21:56;100578.13;;;15.76;55.30
74544;BME280;63016;55.030;38.710;2023-09-07T07:24:21;100585.75;;;15.86;55.39
74544;BME280;63016;55.030;38.710;2023-09-07T07:26:47;100593.53;;;15.94;54.96
74544;BME280;63016;55.030;38.710;2023-09-07T07:29:12;100592.88;;;16.07;54.75
74544;BME280;63016;55.030;38.710;2023-09-07T07:31:38;100593.44;;;16.02;54.41
74544;BME280;63016;55.030;38.710;2023-09-07T07:34:04;100587.63;;;16.07;54.74
74544;BME280;63016;55.030;38.710;2023-09-07T07:36:29;100597.41;;;16.13;54.46
74544;BME280;63016;55.030;38.710;2023-09-07T07:38:55;100591.31;;;16.12;54.33
74544;BME280;63016;55.030;38.710;2023-09-07T07:41:20;100613.28;;;16.19;53.94
74544;BME280;63016;55.030;38.710;2023-09-07T07:43:46;100614.28;;;16.18;53.85
74544;BME280;63016;55.030;38.710;2023-09-07T07:46:11;100611.47;;;16.20;54.19
74544;BME280;63016;55.030;38.710;2023-09-07T07:48:41;100599.84;;;16.14;53.33
74544;BME280;63016;55.030;38.710;2023-09-07T07:51:06;100595.41;;;16.15;53.98
74544;BME280;63016;55.030;38.710;2023-09-07T07:53:31;100601.38;;;16.24;54.01
74544;BME280;63016;55.030;38.710;2023-09-07T07:55:57;100602.09;;;16.32;54.26
74544;BME280;63016;55.030;38.710;2023-09-07T07:58:23;100598.34;;;16.41;54.64
74544;BME280;63016;55.030;38.710;2023-09-07T08:00:48;100588.06;;;16.47;53.76
74544;BME280;63016;55.030;38.710;2023-09-07T08:03:15;100596.97;;;16.45;54.12
74544;BME280;63016;55.030;38.710;2023-09-07T08:05:40;100592.75;;;16.51;53.88
74544;BME280;63016;55.030;38.710;2023-09-07T08:08:06;100593.84;;;16.57;53.68
74544;BME280;63016;55.030;38.710;2023-09-07T08:10:36;100586.75;;;16.57;54.11
74544;BME280;63016;55.030;38.710;2023-09-07T08:13:03;100593.06;;;16.63;53.85
74544;BME280;63016;55.030;38.710;2023-09-07T08:15:29;100598.78;;;16.66;53.39
74544;BME280;63016;55.030;38.710;2023-09-07T08:17:54;100587.00;;;16.62;53.04
74544;BME280;63016;55.030;38.710;2023-09-07T08:20:20;100592.78;;;16.73;53.01
74544;BME280;63016;55.030;38.710;2023-09-07T08:22:46;100582.50;;;16.78;53.36
74544;BME280;63016;55.030;38.710;2023-09-07T08:25:13;100602.84;;;16.84;53.62
74544;BME280;63016;55.030;38.710;2023-09-07T08:27:42;100597.00;;;16.88;53.13
74544;BME280;63016;55.030;38.710;2023-09-07T08:30:14;100597.44;;;16.92;53.51
74544;BME280;63016;55.030;38.710;2023-09-07T08:32:44;100592.34;;;16.90;53.01
74544;BME280;63016;55.030;38.710;2023-09-07T08:35:11;100601.53;;;16.94;53.17
74544;BME280;63016;55.030;38.710;2023-09-07T08:37:40;100587.97;;;16.98;53.18
74544;BME280;63016;55.030;38.710;2023-09-07T08:40:06;100588.63;;;17.06;53.35
74544;BME280;63016;55.030;38.710;2023-09-07T08:42:35;100587.69;;;17.14;52.69
74544;BME280;63016;55.030;38.710;2023-09-07T08:45:02;100589.75;;;17.18;52.80
74544;BME280;63016;55.030;38.710;2023-09-07T08:47:33;100592.38;;;17.18;52.14
74544;BME280;63016;55.030;38.710;2023-09-07T08:49:59;100588.94;;;17.18;51.94
74544;BME280;63016;55.030;38.710;2023-09-07T08:52:25;100584.22;;;17.13;52.17
74544;BME280;63016;55.030;38.710;2023-09-07T08:54:52;100586.50;;;17.16;53.50
74544;BME280;63016;55.030;38.710;2023-09-07T08:57:18;100594.88;;;17.27;52.79
74544;BME280;63016;55.030;38.710;2023-09-07T08:59:45;100591.47;;;17.33;52.43
74544;BME280;63016;55.030;38.710;2023-09-07T09:02:11;100592.72;;;17.37;52.44
74544;BME280;63016;55.030;38.710;2023-09-07T09:04:37;100595.41;;;17.43;52.60
74544;BME280;63016;55.030;38.710;2023-09-07T09:07:04;100584.88;;;17.50;53.06
74544;BME280;63016;55.030;38.710;2023-09-07T09:09:30;100581.25;;;17.51;52.50
74544;BME280;63016;55.030;38.710;2023-09-07T09:12:07;100593.06;;;17.55;51.27
74544;BME280;63016;55.030;38.710;2023-09-07T09:14:33;100590.34;;;17.48;51.82
74544;BME280;63016;55.030;38.710;2023-09-07T09:16:58;100584.06;;;17.50;51.99
74544;BME280;63016;55.030;38.710;2023-09-07T09:19:34;100588.59;;;17.56;52.55
74544;BME280;63016;55.030;38.710;2023-09-07T09:22:00;100586.19;;;17.61;52.08
74544;BME280;63016;55.030;38.710;2023-09-07T09:24:26;100585.00;;;17.70;52.32
74544;BME280;63016;55.030;38.710;2023-09-07T09:26:51;100592.56;;;17.73;52.22
74544;BME280;63016;55.030;38.710;2023-09-07T09:29:22;100597.13;;;17.64;51.06
74544;BME280;63016;55.030;38.710;2023-09-07T09:31:48;100596.72;;;17.61;52.00
74544;BME280;63016;55.030;38.710;2023-09-07T09:34:13;100592.28;;;17.61;52.20
74544;BME280;63016;55.030;38.710;2023-09-07T09:36:42;100582.31;;;17.63;51.74
74544;BME280;63016;55.030;38.710;2023-09-07T09:39:07;100595.03;;;17.75;51.92
74544;BME280;63016;55.030;38.710;2023-09-07T09:41:35;100598.06;;;17.78;51.42
74544;BME280;63016;55.030;38.710;2023-09-07T09:44:03;100591.16;;;17.77;51.57
74544;BME280;63016;55.030;38.710;2023-09-07T09:46:31;100592.38;;;17.75;51.84
74544;BME280;63016;55.030;38.710;2023-09-07T09:48:57;100592.78;;;17.78;51.25
74544;BME280;63016;55.030;38.710;2023-09-07T09:51:24;100591.75;;;17.79;51.21
74544;BME280;63016;55.030;38.710;2023-09-07T09:53:50;100599.69;;;17.79;51.03
74544;BME280;63016;55.030;38.710;2023-09-07T09:56:16;100577.53;;;17.73;51.17
74544;BME280;63016;55.030;38.710;2023-09-07T09:58:42;100602.75;;;17.83;51.28
74544;BME280;63016;55.030;38.710;2023-09-07T10:01:09;100600.53;;;17.80;50.90
74544;BME280;63016;55.030;38.710;2023-09-07T10:03:44;100584.06;;;17.78;50.61
74544;BME280;63016;55.030;38.710;2023-09-07T10:06:40;100609.88;;;17.89;52.20
74544;BME280;63016;55.030;38.710;2023-09-07T10:09:15;100584.78;;;18.00;53.02
74544;BME280;63016;55.030;38.710;2023-09-07T10:11:43;100583.91;;;17.92;50.50
74544;BME280;63016;55.030;38.710;2023-09-07T10:14:09;100609.50;;;17.92;50.40
74544;BME280;63016;55.030;38.710;2023-09-07T10:16:46;100601.13;;;17.82;49.96
74544;BME280;63016;55.030;38.710;2023-09-07T10:19:15;100604.56;;;17.76;50.57
74544;BME280;63016;55.030;38.710;2023-09-07T10:21:42;100608.56;;;17.71;50.49
74544;BME280;63016;55.030;38.710;2023-09-07T10:24:08;100606.88;;;17.64;49.97
74544;BME280;63016;55.030;38.710;2023-09-07T10:26:33;100583.00;;;17.44;50.76
74544;BME280;63016;55.030;38.710;2023-09-07T10:29:00;100590.44;;;17.62;51.02
74544;BME280;63016;55.030;38.710;2023-09-07T10:31:28;100605.13;;;17.71;51.10
74544;BME280;63016;55.030;38.710;2023-09-07T10:33:55;100603.53;;;17.77;50.42
74544;BME280;63016;55.030;38.710;2023-09-07T10:36:25;100594.81;;;17.76;50.62
74544;BME280;63016;55.030;38.710;2023-09-07T10:38:54;100589.75;;;17.81;49.95
74544;BME280;63016;55.030;38.710;2023-09-07T10:41:20;100586.75;;;17.91;49.98
74544;BME280;63016;55.030;38.710;2023-09-07T10:43:51;100569.91;;;17.92;51.18
74544;BME280;63016;55.030;38.710;2023-09-07T10:46:21;100580.31;;;18.07;50.80
74544;BME280;63016;55.030;38.710;2023-09-07T10:48:51;100591.53;;;18.15;49.78
74544;BME280;63016;55.030;38.710;2023-09-07T10:51:20;100579.53;;;18.13;48.71
74544;BME280;63016;55.030;38.710;2023-09-07T10:53:46;100587.25;;;18.14;49.42
74544;BME280;63016;55.030;38.710;2023-09-07T10:56:11;100579.53;;;18.13;49.85
74544;BME280;63016;55.030;38.710;2023-09-07T10:58:38;100579.97;;;18.23;50.27
74544;BME280;63016;55.030;38.710;2023-09-07T11:01:10;100575.50;;;18.23;49.47
74544;BME280;63016;55.030;38.710;2023-09-07T11:03:37;100577.16;;;18.31;49.30
74544;BME280;63016;55.030;38.710;2023-09-07T11:08:31;100579.41;;;18.41;49.73
74544;BME280;63016;55.030;38.710;2023-09-07T11:11:04;100571.50;;;18.47;49.90
74544;BME280;63016;55.030;38.710;2023-09-07T11:13:30;100568.88;;;18.54;49.54
74544;BME280;63016;55.030;38.710;2023-09-07T11:15:56;100569.50;;;18.63;50.14
74544;BME280;63016;55.030;38.710;2023-09-07T11:18:23;100569.72;;;18.74;50.32
74544;BME280;63016;55.030;38.710;2023-09-07T11:20:50;100576.22;;;18.85;49.51
74544;BME280;63016;55.030;38.710;2023-09-07T11:23:20;100578.91;;;18.92;49.59
74544;BME280;63016;55.030;38.710;2023-09-07T11:25:49;100578.06;;;18.98;49.13
74544;BME280;63016;55.030;38.710;2023-09-07T11:28:17;100578.28;;;19.03;48.81
74544;BME280;63016;55.030;38.710;2023-09-07T11:30:50;100577.88;;;19.06;48.38
74544;BME280;63016;55.030;38.710;2023-09-07T11:33:20;100582.16;;;19.07;48.64
74544;BME280;63016;55.030;38.710;2023-09-07T11:35:46;100574.44;;;19.06;48.37
74544;BME280;63016;55.030;38.710;2023-09-07T11:38:13;100574.81;;;19.03;48.25
74544;BME280;63016;55.030;38.710;2023-09-07T11:40:39;100577.69;;;19.01;48.05
74544;BME280;63016;55.030;38.710;2023-09-07T11:43:08;100564.84;;;18.98;48.46
74544;BME280;63016;55.030;38.710;2023-09-07T11:45:34;100564.03;;;18.97;47.82
74544;BME280;63016;55.030;38.710;2023-09-07T11:47:59;100570.97;;;18.92;48.26
74544;BME280;63016;55.030;38.710;2023-09-07T11:50:25;100562.81;;;18.80;47.98
74544;BME280;63016;55.030;38.710;2023-09-07T11:52:50;100565.28;;;18.82;48.51
74544;BME280;63016;55.030;38.710;2023-09-07T11:55:17;100567.91;;;18.75;48.06
74544;BME280;63016;55.030;38.710;2023-09-07T11:57:42;100571.56;;;18.74;48.09
74544;BME280;63016;55.030;38.710;2023-09-07T12:00:08;100558.56;;;18.72;48.60
74544;BME280;63016;55.030;38.710;2023-09-07T12:02:39;100576.03;;;18.73;48.36
74544;BME280;63016;55.030;38.710;2023-09-07T12:05:06;100557.94;;;18.70;47.86
74544;BME280;63016;55.030;38.710;2023-09-07T12:07:38;100557.31;;;18.68;48.72
74544;BME280;63016;55.030;38.710;2023-09-07T12:10:04;100558.31;;;18.67;47.77
74544;BME280;63016;55.030;38.710;2023-09-07T12:12:29;100548.94;;;18.58;48.33
74544;BME280;63016;55.030;38.710;2023-09-07T12:14:55;100556.31;;;18.69;48.00
74544;BME280;63016;55.030;38.710;2023-09-07T12:17:22;100548.78;;;18.66;48.54
74544;BME280;63016;55.030;38.710;2023-09-07T12:19:49;100543.28;;;18.74;48.33
74544;BME280;63016;55.030;38.710;2023-09-07T12:22:15;100556.94;;;18.71;48.13
74544;BME280;63016;55.030;38.710;2023-09-07T12:24:40;100555.50;;;18.69;48.14
74544;BME280;63016;55.030;38.710;2023-09-07T12:27:06;100552.41;;;18.65;47.91
74544;BME280;63016;55.030;38.710;2023-09-07T12:29:31;100552.81;;;18.62;48.08
74544;BME280;63016;55.030;38.710;2023-09-07T12:31:57;100539.41;;;18.57;47.74
74544;BME280;63016;55.030;38.710;2023-09-07T12:34:23;100552.41;;;18.59;47.50
74544;BME280;63016;55.030;38.710;2023-09-07T12:36:50;100545.91;;;18.48;47.84
74544;BME280;63016;55.030;38.710;2023-09-07T12:39:15;100554.81;;;18.40;47.56